sensor_id;sensor_type;location;lat;lon;timestamp;pressure;altitude;pressure_sealevel;temperature;humidity
5550;BME280;2798;42.716;23.256;2024-01-25T00:02:13;95266.84;;;4.83;84.46
5550;BME280;2798;42.716;23.256;2024-01-25T00:04:38;95259.34;;;4.80;84.22
5550;BME280;2798;42.716;23.256;2024-01-25T00:07:03;95249.00;;;4.83;83.93
5550;BME280;2798;42.716;23.256;2024-01-25T00:09:28;95233.44;;;4.89;84.25
5550;BME280;2798;42.716;23.256;2024-01-25T00:11:54;95229.00;;;4.94;83.83
5550;BME280;2798;42.716;23.256;2024-01-25T00:14:19;95210.94;;;4.99;83.94
5550;BME280;2798;42.716;23.256;2024-01-25T00:16:44;95192.25;;;4.99;84.33
5550;BME280;2798;42.716;23.256;2024-01-25T00:19:09;95179.63;;;4.95;84.55
5550;BME280;2798;42.716;23.256;2024-01-25T00:21:34;95177.78;;;4.99;84.41
5550;BME280;2798;42.716;23.256;2024-01-25T00:24:00;95159.84;;;5.01;84.68
5550;BME280;2798;42.716;23.256;2024-01-25T00:26:25;95155.00;;;4.94;84.80
5550;BME280;2798;42.716;23.256;2024-01-25T00:28:50;95170.06;;;5.01;84.81
5550;BME280;2798;42.716;23.256;2024-01-25T00:31:16;95175.22;;;4.99;84.32
5550;BME280;2798;42.716;23.256;2024-01-25T00:33:41;95180.38;;;4.98;84.47
5550;BME280;2798;42.716;23.256;2024-01-25T00:36:06;95174.59;;;4.94;84.88
5550;BME280;2798;42.716;23.256;2024-01-25T00:38:32;95185.50;;;4.98;85.08
5550;BME280;2798;42.716;23.256;2024-01-25T00:40:57;95194.84;;;4.97;84.35
5550;BME280;2798;42.716;23.256;2024-01-25T00:43:23;95187.91;;;5.01;84.92
5550;BME280;2798;42.716;23.256;2024-01-25T00:45:48;95191.38;;;5.00;84.72
5550;BME280;2798;42.716;23.256;2024-01-25T00:48:13;95174.44;;;4.97;85.11
5550;BME280;2798;42.716;23.256;2024-01-25T00:50:39;95163.31;;;5.00;84.75
5550;BME280;2798;42.716;23.256;2024-01-25T00:53:04;95171.69;;;5.02;85.52
5550;BME280;2798;42.716;23.256;2024-01-25T00:55:30;95175.03;;;5.04;85.32
5550;BME280;2798;42.716;23.256;2024-01-25T00:57:55;95121.66;;;4.59;85.37
5550;BME280;2798;42.716;23.256;2024-01-25T01:00:21;95226.38;;;4.96;84.36
5550;BME280;2798;42.716;23.256;2024-01-25T01:02:46;95180.78;;;4.88;83.79
5550;BME280;2798;42.716;23.256;2024-01-25T01:05:12;95191.72;;;4.90;83.87
5550;BME280;2798;42.716;23.256;2024-01-25T01:07:38;95178.78;;;4.95;82.44
5550;BME280;2798;42.716;23.256;2024-01-25T01:10:05;95180.38;;;4.98;80.40
5550;BME280;2798;42.716;23.256;2024-01-25T01:12:31;95173.63;;;4.97;81.38
5550;BME280;2798;42.716;23.256;2024-01-25T01:14:56;95173.63;;;4.97;80.35
5550;BME280;2798;42.716;23.256;2024-01-25T01:17:21;95144.41;;;5.04;80.51
5550;BME280;2798;42.716;23.256;2024-01-25T01:19:47;95126.47;;;5.05;81.11
5550;BME280;2798;42.716;23.256;2024-01-25T01:22:12;95123.03;;;5.06;81.89
5550;BME280;2798;42.716;23.256;2024-01-25T01:24:37;95114.63;;;5.04;82.00
5550;BME280;2798;42.716;23.256;2024-01-25T01:27:03;95113.38;;;5.13;81.33
5550;BME280;2798;42.716;23.256;2024-01-25T01:29:28;95107.66;;;5.08;81.03
5550;BME280;2798;42.716;23.256;2024-01-25T01:31:53;95119.47;;;5.11;81.48
5550;BME280;2798;42.716;23.256;2024-01-25T01:34:18;95112.81;;;5.06;80.97
5550;BME280;2798;42.716;23.256;2024-01-25T01:36:44;95116.50;;;5.20;80.58
5550;BME280;2798;42.716;23.256;2024-01-25T01:39:09;95106.22;;;5.22;80.80
5550;BME280;2798;42.716;23.256;2024-01-25T01:41:34;95110.34;;;5.24;81.37
5550;BME280;2798;42.716;23.256;2024-01-25T01:44:00;95101.81;;;5.25;81.85
5550;BME280;2798;42.716;23.256;2024-01-25T01:46:38;95110.13;;;5.29;81.68
5550;BME280;2798;42.716;23.256;2024-01-25T01:49:05;95079.78;;;5.23;81.63
5550;BME280;2798;42.716;23.256;2024-01-25T01:51:31;95079.66;;;5.26;81.68
5550;BME280;2798;42.716;23.256;2024-01-25T01:53:57;95089.72;;;5.29;80.98
5550;BME280;2798;42.716;23.256;2024-01-25T01:56:26;95072.53;;;5.32;80.65
5550;BME280;2798;42.716;23.256;2024-01-25T01:58:52;95070.00;;;5.32;81.55
5550;BME280;2798;42.716;23.256;2024-01-25T02:01:18;95063.31;;;5.30;82.06
5550;BME280;2798;42.716;23.256;2024-01-25T02:03:43;95058.94;;;5.32;81.91
5550;BME280;2798;42.716;23.256;2024-01-25T02:06:08;95060.41;;;5.38;81.57
5550;BME280;2798;42.716;23.256;2024-01-25T02:08:34;95069.13;;;5.34;82.19
5550;BME280;2798;42.716;23.256;2024-01-25T02:10:59;95062.13;;;5.37;81.14
5550;BME280;2798;42.716;23.256;2024-01-25T02:13:25;95071.31;;;5.41;79.79
5550;BME280;2798;42.716;23.256;2024-01-25T02:15:51;95082.31;;;5.42;80.02
5550;BME280;2798;42.716;23.256;2024-01-25T02:18:16;95087.72;;;5.36;80.80
5550;BME280;2798;42.716;23.256;2024-01-25T02:20:41;95090.13;;;5.39;80.35
5550;BME280;2798;42.716;23.256;2024-01-25T02:23:07;95090.97;;;5.39;80.04
5550;BME280;2798;42.716;23.256;2024-01-25T02:25:32;95085.16;;;5.36;80.32
5550;BME280;2798;42.716;23.256;2024-01-25T02:27:57;95084.47;;;5.32;81.25
5550;BME280;2798;42.716;23.256;2024-01-25T02:30:22;95092.09;;;5.34;81.07
5550;BME280;2798;42.716;23.256;2024-01-25T02:32:48;95078.41;;;5.35;81.20
5550;BME280;2798;42.716;23.256;2024-01-25T02:35:13;95077.28;;;5.40;80.76
5550;BME280;2798;42.716;23.256;2024-01-25T02:37:38;95089.47;;;5.35;81.07
5550;BME280;2798;42.716;23.256;2024-01-25T02:40:04;95080.81;;;5.38;80.72
5550;BME280;2798;42.716;23.256;2024-01-25T02:42:29;95074.00;;;5.38;80.66
5550;BME280;2798;42.716;23.256;2024-01-25T02:44:54;95073.53;;;5.30;80.85
5550;BME280;2798;42.716;23.256;2024-01-25T02:47:20;95059.22;;;5.26;80.84
5550;BME280;2798;42.716;23.256;2024-01-25T02:49:45;95058.22;;;5.30;80.63
5550;BME280;2798;42.716;23.256;2024-01-25T02:52:10;95051.91;;;5.37;80.74
5550;BME280;2798;42.716;23.256;2024-01-25T02:54:35;95054.75;;;5.31;81.16
5550;BME280;2798;42.716;23.256;2024-01-25T02:57:04;95041.03;;;5.34;81.48
5550;BME280;2798;42.716;23.256;2024-01-25T02:59:29;95038.53;;;5.32;81.63
5550;BME280;2798;42.716;23.256;2024-01-25T03:01:55;95047.72;;;5.36;81.61
5550;BME280;2798;42.716;23.256;2024-01-25T03:04:20;95039.22;;;5.36;82.13
5550;BME280;2798;42.716;23.256;2024-01-25T03:06:45;95039.06;;;5.39;82.91
5550;BME280;2798;42.716;23.256;2024-01-25T03:09:10;95045.09;;;5.38;82.81
5550;BME280;2798;42.716;23.256;2024-01-25T03:11:36;95049.22;;;5.40;82.67
5550;BME280;2798;42.716;23.256;2024-01-25T03:14:01;95033.75;;;5.43;83.24
5550;BME280;2798;42.716;23.256;2024-01-25T03:16:26;95045.78;;;5.41;83.37
5550;BME280;2798;42.716;23.256;2024-01-25T03:18:51;95037.91;;;5.46;83.74
5550;BME280;2798;42.716;23.256;2024-01-25T03:21:17;95050.22;;;5.55;83.31
5550;BME280;2798;42.716;23.256;2024-01-25T03:23:42;95050.44;;;5.51;84.03
5550;BME280;2798;42.716;23.256;2024-01-25T03:26:07;95049.47;;;5.53;84.24
5550;BME280;2798;42.716;23.256;2024-01-25T03:28:34;95042.34;;;5.60;84.02
5550;BME280;2798;42.716;23.256;2024-01-25T03:30:59;95047.78;;;5.72;83.72
5550;BME280;2798;42.716;23.256;2024-01-25T03:33:25;95062.63;;;5.63;84.19
5550;BME280;2798;42.716;23.256;2024-01-25T03:35:51;95037.84;;;5.65;84.57
5550;BME280;2798;42.716;23.256;2024-01-25T03:38:17;95026.50;;;5.71;84.47
5550;BME280;2798;42.716;23.256;2024-01-25T03:40:42;95010.50;;;5.67;83.89
5550;BME280;2798;42.716;23.256;2024-01-25T03:43:07;95012.31;;;5.65;84.64
5550;BME280;2798;42.716;23.256;2024-01-25T03:45:32;95033.22;;;5.74;84.51
5550;BME280;2798;42.716;23.256;2024-01-25T03:47:58;95049.28;;;5.76;83.81
5550;BME280;2798;42.716;23.256;2024-01-25T03:50:23;95030.59;;;5.75;84.47
5550;BME280;2798;42.716;23.256;2024-01-25T03:52:49;95015.09;;;5.78;84.48
5550;BME280;2798;42.716;23.256;2024-01-25T03:55:14;95009.69;;;5.85;83.66
5550;BME280;2798;42.716;23.256;2024-01-25T03:57:39;94991.81;;;5.85;83.36
5550;BME280;2798;42.716;23.256;2024-01-25T04:00:05;95009.31;;;5.92;83.09
5550;BME280;2798;42.716;23.256;2024-01-25T04:02:31;95007.59;;;5.93;82.84
5550;BME280;2798;42.716;23.256;2024-01-25T04:04:56;94993.75;;;5.97;82.36
5550;BME280;2798;42.716;23.256;2024-01-25T04:07:21;95010.47;;;6.04;81.99
5550;BME280;2798;42.716;23.256;2024-01-25T04:09:47;94998.72;;;6.00;82.62
5550;BME280;2798;42.716;23.256;2024-01-25T04:12:12;94998.72;;;6.00;82.51
5550;BME280;2798;42.716;23.256;2024-01-25T04:14:37;95000.25;;;6.04;81.68
5550;BME280;2798;42.716;23.256;2024-01-25T04:17:02;95005.13;;;6.09;82.37
5550;BME280;2798;42.716;23.256;2024-01-25T04:19:28;95005.41;;;6.03;82.18
5550;BME280;2798;42.716;23.256;2024-01-25T04:21:53;95007.84;;;6.06;81.96
5550;BME280;2798;42.716;23.256;2024-01-25T04:24:18;94993.53;;;6.02;81.62
5550;BME280;2798;42.716;23.256;2024-01-25T04:26:44;95000.25;;;6.04;82.36
5550;BME280;2798;42.716;23.256;2024-01-25T04:29:09;95000.19;;;6.06;81.28
5550;BME280;2798;42.716;23.256;2024-01-25T04:31:34;95003.47;;;6.08;81.39
5550;BME280;2798;42.716;23.256;2024-01-25T04:33:59;95013.84;;;6.05;81.52
5550;BME280;2798;42.716;23.256;2024-01-25T04:36:25;94959.88;;;5.58;81.76
5550;BME280;2798;42.716;23.256;2024-01-25T04:38:50;95032.69;;;6.02;82.03
5550;BME280;2798;42.716;23.256;2024-01-25T04:41:15;95040.56;;;5.98;81.09
5550;BME280;2798;42.716;23.256;2024-01-25T04:43:40;95039.59;;;6.00;79.74
5550;BME280;2798;42.716;23.256;2024-01-25T04:46:06;95053.19;;;6.01;80.19
5550;BME280;2798;42.716;23.256;2024-01-25T04:48:32;95045.75;;;5.96;80.08
5550;BME280;2798;42.716;23.256;2024-01-25T04:50:57;95063.13;;;5.89;80.16
5550;BME280;2798;42.716;23.256;2024-01-25T04:53:25;95049.56;;;5.87;81.22
5550;BME280;2798;42.716;23.256;2024-01-25T04:55:50;95059.72;;;5.89;80.68
5550;BME280;2798;42.716;23.256;2024-01-25T04:58:16;95053.81;;;5.88;80.63
5550;BME280;2798;42.716;23.256;2024-01-25T05:00:41;95056.84;;;5.77;81.19
5550;BME280;2798;42.716;23.256;2024-01-25T05:03:06;95059.63;;;5.73;81.18
5550;BME280;2798;42.716;23.256;2024-01-25T05:05:32;95060.53;;;5.72;81.24
5550;BME280;2798;42.716;23.256;2024-01-25T05:07:57;95061.81;;;5.80;80.38
5550;BME280;2798;42.716;23.256;2024-01-25T05:10:22;95055.13;;;5.78;81.00
5550;BME280;2798;42.716;23.256;2024-01-25T05:12:48;95067.91;;;5.78;81.26
5550;BME280;2798;42.716;23.256;2024-01-25T05:15:13;95077.22;;;5.79;81.03
5550;BME280;2798;42.716;23.256;2024-01-25T05:17:39;95081.50;;;5.78;80.26
5550;BME280;2798;42.716;23.256;2024-01-25T05:20:04;95087.22;;;5.84;80.75
5550;BME280;2798;42.716;23.256;2024-01-25T05:22:30;95105.78;;;5.87;80.32
5550;BME280;2798;42.716;23.256;2024-01-25T05:24:55;95089.09;;;5.80;80.58
5550;BME280;2798;42.716;23.256;2024-01-25T05:27:20;95096.75;;;5.80;80.55
5550;BME280;2798;42.716;23.256;2024-01-25T05:29:46;95094.06;;;5.83;80.80
5550;BME280;2798;42.716;23.256;2024-01-25T05:32:11;95107.63;;;5.84;81.15
5550;BME280;2798;42.716;23.256;2024-01-25T05:34:36;95098.03;;;5.89;80.60
5550;BME280;2798;42.716;23.256;2024-01-25T05:37:01;95097.56;;;5.80;80.08
5550;BME280;2798;42.716;23.256;2024-01-25T05:39:27;95095.56;;;5.87;80.51
5550;BME280;2798;42.716;23.256;2024-01-25T05:41:52;95101.50;;;5.88;80.98
5550;BME280;2798;42.716;23.256;2024-01-25T05:44:18;95112.63;;;5.87;80.40
5550;BME280;2798;42.716;23.256;2024-01-25T05:46:43;95102.75;;;5.79;80.72
5550;BME280;2798;42.716;23.256;2024-01-25T05:49:08;95119.34;;;5.70;80.87
5550;BME280;2798;42.716;23.256;2024-01-25T05:51:33;95139.56;;;5.75;80.47
5550;BME280;2798;42.716;23.256;2024-01-25T05:53:58;95134.31;;;5.78;79.40
5550;BME280;2798;42.716;23.256;2024-01-25T05:56:24;95137.63;;;5.80;80.00
5550;BME280;2798;42.716;23.256;2024-01-25T05:58:50;95138.59;;;5.77;79.71
5550;BME280;2798;42.716;23.256;2024-01-25T06:01:15;95138.59;;;5.77;79.18
5550;BME280;2798;42.716;23.256;2024-01-25T06:03:44;95145.97;;;5.84;79.39
5550;BME280;2798;42.716;23.256;2024-01-25T06:06:09;95138.91;;;5.89;79.70
5550;BME280;2798;42.716;23.256;2024-01-25T06:08:35;95144.78;;;5.91;79.79
5550;BME280;2798;42.716;23.256;2024-01-25T06:11:00;95137.88;;;5.93;78.93
5550;BME280;2798;42.716;23.256;2024-01-25T06:13:25;95131.03;;;5.93;79.62
5550;BME280;2798;42.716;23.256;2024-01-25T06:15:50;95148.97;;;5.92;79.58
5550;BME280;2798;42.716;23.256;2024-01-25T06:18:16;95138.84;;;5.90;79.39
5550;BME280;2798;42.716;23.256;2024-01-25T06:20:41;95158.47;;;5.90;78.68
5550;BME280;2798;42.716;23.256;2024-01-25T06:23:06;95150.81;;;5.90;78.89
5550;BME280;2798;42.716;23.256;2024-01-25T06:25:32;95155.75;;;5.93;79.36
5550;BME280;2798;42.716;23.256;2024-01-25T06:27:57;95153.94;;;5.95;78.88
5550;BME280;2798;42.716;23.256;2024-01-25T06:30:26;95142.69;;;5.99;78.59
5550;BME280;2798;42.716;23.256;2024-01-25T06:32:52;95140.94;;;6.00;79.21
5550;BME280;2798;42.716;23.256;2024-01-25T06:35:17;95152.84;;;6.01;79.07
5550;BME280;2798;42.716;23.256;2024-01-25T06:37:42;95160.03;;;6.12;77.95
5550;BME280;2798;42.716;23.256;2024-01-25T06:40:07;95145.38;;;6.15;78.38
5550;BME280;2798;42.716;23.256;2024-01-25T06:42:33;95157.31;;;6.15;78.68
5550;BME280;2798;42.716;23.256;2024-01-25T06:44:58;95153.78;;;6.17;78.47
5550;BME280;2798;42.716;23.256;2024-01-25T06:47:24;95166.06;;;6.28;78.41
5550;BME280;2798;42.716;23.256;2024-01-25T06:49:49;95164.25;;;6.30;78.81
5550;BME280;2798;42.716;23.256;2024-01-25T06:52:16;95167.94;;;6.25;79.26
5550;BME280;2798;42.716;23.256;2024-01-25T06:54:42;95144.56;;;6.33;78.97
5550;BME280;2798;42.716;23.256;2024-01-25T06:57:07;95156.34;;;6.35;78.85
5550;BME280;2798;42.716;23.256;2024-01-25T06:59:32;95165.63;;;6.38;78.79
5550;BME280;2798;42.716;23.256;2024-01-25T07:01:58;95161.19;;;6.41;79.44
5550;BME280;2798;42.716;23.256;2024-01-25T07:04:23;95153.22;;;6.48;78.71
5550;BME280;2798;42.716;23.256;2024-01-25T07:06:48;95172.69;;;6.50;79.07
5550;BME280;2798;42.716;23.256;2024-01-25T07:09:14;95177.56;;;6.55;78.36
5550;BME280;2798;42.716;23.256;2024-01-25T07:11:39;95158.63;;;6.59;77.98
5550;BME280;2798;42.716;23.256;2024-01-25T07:14:06;95163.75;;;6.59;77.88
5550;BME280;2798;42.716;23.256;2024-01-25T07:16:31;95156.78;;;6.61;78.45
5550;BME280;2798;42.716;23.256;2024-01-25T07:18:56;95148.97;;;6.64;77.72
5550;BME280;2798;42.716;23.256;2024-01-25T07:21:22;95164.00;;;6.71;77.50
5550;BME280;2798;42.716;23.256;2024-01-25T07:23:47;95157.53;;;6.81;77.64
5550;BME280;2798;42.716;23.256;2024-01-25T07:26:16;95157.69;;;6.78;77.15
5550;BME280;2798;42.716;23.256;2024-01-25T07:28:41;95146.47;;;6.80;77.56
5550;BME280;2798;42.716;23.256;2024-01-25T07:31:07;95147.16;;;6.84;77.27
5550;BME280;2798;42.716;23.256;2024-01-25T07:33:32;95135.66;;;6.75;77.51
5550;BME280;2798;42.716;23.256;2024-01-25T07:35:57;95130.31;;;6.80;77.72
5550;BME280;2798;42.716;23.256;2024-01-25T07:38:24;95141.03;;;6.87;76.58
5550;BME280;2798;42.716;23.256;2024-01-25T07:40:49;95143.38;;;6.91;76.69
5550;BME280;2798;42.716;23.256;2024-01-25T07:43:14;95127.78;;;6.96;76.46
5550;BME280;2798;42.716;23.256;2024-01-25T07:45:39;95140.59;;;6.96;75.96
5550;BME280;2798;42.716;23.256;2024-01-25T07:48:05;95131.00;;;7.00;75.61
5550;BME280;2798;42.716;23.256;2024-01-25T07:50:30;95141.31;;;6.98;76.29
5550;BME280;2798;42.716;23.256;2024-01-25T07:52:56;95136.03;;;7.01;76.62
5550;BME280;2798;42.716;23.256;2024-01-25T07:55:21;95136.56;;;7.08;76.77
5550;BME280;2798;42.716;23.256;2024-01-25T07:57:46;95131.69;;;7.03;75.50
5550;BME280;2798;42.716;23.256;2024-01-25T08:00:12;95136.06;;;7.17;76.13
5550;BME280;2798;42.716;23.256;2024-01-25T08:02:37;95145.94;;;7.25;76.44
5550;BME280;2798;42.716;23.256;2024-01-25T08:05:06;95148.88;;;7.34;75.82
5550;BME280;2798;42.716;23.256;2024-01-25T08:07:31;95159.88;;;7.36;75.76
5550;BME280;2798;42.716;23.256;2024-01-25T08:09:58;95155.59;;;7.36;75.06
5550;BME280;2798;42.716;23.256;2024-01-25T08:12:26;95152.38;;;7.49;75.42
5550;BME280;2798;42.716;23.256;2024-01-25T08:14:51;95164.84;;;7.55;74.30
5550;BME280;2798;42.716;23.256;2024-01-25T08:17:16;95167.16;;;7.60;75.13
5550;BME280;2798;42.716;23.256;2024-01-25T08:19:42;95175.44;;;7.65;74.75
5550;BME280;2798;42.716;23.256;2024-01-25T08:22:07;95175.28;;;7.68;74.01
5550;BME280;2798;42.716;23.256;2024-01-25T08:24:32;95175.88;;;7.73;74.81
5550;BME280;2798;42.716;23.256;2024-01-25T08:26:58;95169.56;;;7.79;75.35
5550;BME280;2798;42.716;23.256;2024-01-25T08:29:23;95196.63;;;7.85;73.96
5550;BME280;2798;42.716;23.256;2024-01-25T08:31:48;95164.78;;;7.89;73.59
5550;BME280;2798;42.716;23.256;2024-01-25T08:34:13;95168.84;;;7.93;73.62
5550;BME280;2798;42.716;23.256;2024-01-25T08:36:39;95168.50;;;7.99;74.01
5550;BME280;2798;42.716;23.256;2024-01-25T08:39:04;95163.03;;;8.06;73.74
5550;BME280;2798;42.716;23.256;2024-01-25T08:41:30;95168.97;;;8.06;73.81
5550;BME280;2798;42.716;23.256;2024-01-25T08:43:55;95174.84;;;8.08;74.58
5550;BME280;2798;42.716;23.256;2024-01-25T08:46:21;95186.91;;;8.06;73.15
5550;BME280;2798;42.716;23.256;2024-01-25T08:48:46;95185.44;;;8.02;72.87
5550;BME280;2798;42.716;23.256;2024-01-25T08:51:11;95181.63;;;8.09;73.56
5550;BME280;2798;42.716;23.256;2024-01-25T08:53:37;95197.06;;;8.24;72.13
5550;BME280;2798;42.716;23.256;2024-01-25T08:56:02;95194.84;;;8.18;72.64
5550;BME280;2798;42.716;23.256;2024-01-25T08:58:29;95181.63;;;8.09;71.90
5550;BME280;2798;42.716;23.256;2024-01-25T09:00:54;95185.81;;;8.26;72.87
5550;BME280;2798;42.716;23.256;2024-01-25T09:03:19;95191.84;;;8.25;71.66
5550;BME280;2798;42.716;23.256;2024-01-25T09:05:45;95192.84;;;8.23;72.36
5550;BME280;2798;42.716;23.256;2024-01-25T09:08:13;95186.78;;;8.24;72.39
5550;BME280;2798;42.716;23.256;2024-01-25T09:10:39;95177.38;;;8.24;72.25
5550;BME280;2798;42.716;23.256;2024-01-25T09:13:05;95176.63;;;8.22;72.07
5550;BME280;2798;42.716;23.256;2024-01-25T09:15:30;95172.34;;;8.23;72.34
5550;BME280;2798;42.716;23.256;2024-01-25T09:17:56;95176.31;;;8.28;72.46
5550;BME280;2798;42.716;23.256;2024-01-25T09:20:21;95163.41;;;8.30;73.06
5550;BME280;2798;42.716;23.256;2024-01-25T09:22:46;95183.09;;;8.29;73.19
5550;BME280;2798;42.716;23.256;2024-01-25T09:25:12;95172.81;;;8.29;72.86
5550;BME280;2798;42.716;23.256;2024-01-25T09:27:37;95177.94;;;8.29;73.09
5550;BME280;2798;42.716;23.256;2024-01-25T09:30:03;95167.69;;;8.29;72.81
5550;BME280;2798;42.716;23.256;2024-01-25T09:32:30;95160.56;;;8.35;72.81
5550;BME280;2798;42.716;23.256;2024-01-25T09:34:55;95165.19;;;8.44;73.20
5550;BME280;2798;42.716;23.256;2024-01-25T09:37:20;95160.34;;;8.54;72.67
5550;BME280;2798;42.716;23.256;2024-01-25T09:39:48;95164.50;;;8.57;73.10
5550;BME280;2798;42.716;23.256;2024-01-25T09:42:13;95155.97;;;8.56;72.23
5550;BME280;2798;42.716;23.256;2024-01-25T09:44:38;95180.72;;;8.57;72.72
5550;BME280;2798;42.716;23.256;2024-01-25T09:47:05;95149.94;;;8.57;70.54
5550;BME280;2798;42.716;23.256;2024-01-25T09:49:32;95133.44;;;8.61;70.83
5550;BME280;2798;42.716;23.256;2024-01-25T09:51:58;95133.72;;;8.57;71.42
5550;BME280;2798;42.716;23.256;2024-01-25T09:54:28;95128.50;;;8.58;72.01
5550;BME280;2798;42.716;23.256;2024-01-25T09:56:55;95131.91;;;8.59;71.57
5550;BME280;2798;42.716;23.256;2024-01-25T09:59:21;95119.97;;;8.58;71.31
5550;BME280;2798;42.716;23.256;2024-01-25T10:01:46;95116.84;;;8.52;73.07
5550;BME280;2798;42.716;23.256;2024-01-25T10:04:13;95108.97;;;8.56;73.56
5550;BME280;2798;42.716;23.256;2024-01-25T10:06:39;95100.75;;;8.65;73.03
5550;BME280;2798;42.716;23.256;2024-01-25T10:09:04;95098.00;;;8.68;73.36
5550;BME280;2798;42.716;23.256;2024-01-25T10:11:29;95097.72;;;8.73;72.98
5550;BME280;2798;42.716;23.256;2024-01-25T10:14:00;95086.81;;;8.84;73.31
5550;BME280;2798;42.716;23.256;2024-01-25T10:16:26;95091.28;;;8.95;73.00
5550;BME280;2798;42.716;23.256;2024-01-25T10:18:51;95081.88;;;8.95;73.00
5550;BME280;2798;42.716;23.256;2024-01-25T10:21:17;95093.63;;;8.99;72.62
5550;BME280;2798;42.716;23.256;2024-01-25T10:23:45;95090.94;;;9.01;71.83
5550;BME280;2798;42.716;23.256;2024-01-25T10:26:12;95095.25;;;9.00;71.93
5550;BME280;2798;42.716;23.256;2024-01-25T10:28:37;95092.31;;;9.07;71.28
5550;BME280;2798;42.716;23.256;2024-01-25T10:31:03;95092.03;;;9.11;71.34
5550;BME280;2798;42.716;23.256;2024-01-25T10:33:32;95091.19;;;9.11;71.88
5550;BME280;2798;42.716;23.256;2024-01-25T10:35:58;95094.31;;;9.16;72.00
5550;BME280;2798;42.716;23.256;2024-01-25T10:38:36;95101.75;;;9.21;71.80
5550;BME280;2798;42.716;23.256;2024-01-25T10:41:02;95098.56;;;9.17;71.19
5550;BME280;2798;42.716;23.256;2024-01-25T10:43:28;95090.84;;;9.17;70.79
5550;BME280;2798;42.716;23.256;2024-01-25T10:45:55;95078.44;;;9.24;69.34
5550;BME280;2798;42.716;23.256;2024-01-25T10:48:23;95066.53;;;9.23;69.90
5550;BME280;2798;42.716;23.256;2024-01-25T10:50:48;95065.59;;;9.24;70.44
5550;BME280;2798;42.716;23.256;2024-01-25T10:53:14;95066.97;;;9.30;70.13
5550;BME280;2798;42.716;23.256;2024-01-25T10:55:40;95065.25;;;9.30;70.55
5550;BME280;2798;42.716;23.256;2024-01-25T10:58:07;95053.28;;;9.29;70.11
5550;BME280;2798;42.716;23.256;2024-01-25T11:00:33;95058.97;;;9.34;69.20
5550;BME280;2798;42.716;23.256;2024-01-25T11:03:00;95056.97;;;9.39;69.29
5550;BME280;2798;42.716;23.256;2024-01-25T11:05:25;95044.63;;;9.45;69.40
5550;BME280;2798;42.716;23.256;2024-01-25T11:07:51;95041.59;;;9.52;69.60
5550;BME280;2798;42.716;23.256;2024-01-25T11:10:17;95029.78;;;9.63;68.55
5550;BME280;2798;42.716;23.256;2024-01-25T11:12:49;95036.16;;;9.57;67.98
5550;BME280;2798;42.716;23.256;2024-01-25T11:15:22;95023.91;;;9.61;66.72
5550;BME280;2798;42.716;23.256;2024-01-25T11:17:52;95013.53;;;9.62;66.80
5550;BME280;2798;42.716;23.256;2024-01-25T11:20:19;95015.31;;;9.62;66.82
5550;BME280;2798;42.716;23.256;2024-01-25T11:22:45;95001.19;;;9.55;66.42
5550;BME280;2798;42.716;23.256;2024-01-25T11:25:13;95014.47;;;9.61;66.93
5550;BME280;2798;42.716;23.256;2024-01-25T11:27:42;95022.38;;;9.58;65.83
5550;BME280;2798;42.716;23.256;2024-01-25T11:30:08;95021.16;;;9.51;66.07
5550;BME280;2798;42.716;23.256;2024-01-25T11:32:33;94966.13;;;9.13;66.02
5550;BME280;2798;42.716;23.256;2024-01-25T11:34:59;95001.25;;;9.40;66.38
5550;BME280;2798;42.716;23.256;2024-01-25T11:37:24;95010.94;;;9.22;66.12
5550;BME280;2798;42.716;23.256;2024-01-25T11:39:49;95011.84;;;9.21;66.12
5550;BME280;2798;42.716;23.256;2024-01-25T11:42:14;95024.00;;;9.19;65.68
5550;BME280;2798;42.716;23.256;2024-01-25T11:44:40;95015.53;;;9.17;67.02
5550;BME280;2798;42.716;23.256;2024-01-25T11:47:05;95014.81;;;9.14;66.42
5550;BME280;2798;42.716;23.256;2024-01-25T11:49:34;95025.91;;;9.15;66.94
5550;BME280;2798;42.716;23.256;2024-01-25T11:51:59;95014.00;;;9.14;67.33
5550;BME280;2798;42.716;23.256;2024-01-25T11:54:27;95041.06;;;9.05;66.32
5550;BME280;2798;42.716;23.256;2024-01-25T11:56:52;95016.22;;;9.06;67.11
5550;BME280;2798;42.716;23.256;2024-01-25T11:59:17;95009.22;;;9.08;66.78
5550;BME280;2798;42.716;23.256;2024-01-25T12:01:43;95014.44;;;9.06;67.23
5550;BME280;2798;42.716;23.256;2024-01-25T12:04:09;95030.78;;;9.05;66.35
5550;BME280;2798;42.716;23.256;2024-01-25T12:06:34;95025.66;;;9.05;67.38
5550;BME280;2798;42.716;23.256;2024-01-25T12:09:08;95031.72;;;9.04;67.23
5550;BME280;2798;42.716;23.256;2024-01-25T12:11:33;95034.47;;;9.01;67.62
5550;BME280;2798;42.716;23.256;2024-01-25T12:13:59;94956.59;;;8.58;67.28
5550;BME280;2798;42.716;23.256;2024-01-25T12:16:24;95000.66;;;8.94;67.92
5550;BME280;2798;42.716;23.256;2024-01-25T12:18:49;95005.13;;;9.05;67.77
5550;BME280;2798;42.716;23.256;2024-01-25T12:21:14;94997.69;;;9.00;67.70
5550;BME280;2798;42.716;23.256;2024-01-25T12:23:40;94997.59;;;9.02;67.73
5550;BME280;2798;42.716;23.256;2024-01-25T12:26:06;94987.16;;;9.05;66.63
5550;BME280;2798;42.716;23.256;2024-01-25T12:28:32;94984.72;;;9.17;66.50
5550;BME280;2798;42.716;23.256;2024-01-25T12:31:00;94982.69;;;9.22;67.20
5550;BME280;2798;42.716;23.256;2024-01-25T12:33:26;94983.75;;;9.32;67.08
5550;BME280;2798;42.716;23.256;2024-01-25T12:35:51;94979.16;;;9.37;66.90
5550;BME280;2798;42.716;23.256;2024-01-25T12:38:18;94979.41;;;9.47;66.10
5550;BME280;2798;42.716;23.256;2024-01-25T12:40:45;94953.94;;;9.57;66.24
5550;BME280;2798;42.716;23.256;2024-01-25T12:43:11;94954.75;;;9.58;66.40
5550;BME280;2798;42.716;23.256;2024-01-25T12:45:36;94952.59;;;9.64;65.84
5550;BME280;2798;42.716;23.256;2024-01-25T12:48:02;94952.84;;;9.74;66.03
5550;BME280;2798;42.716;23.256;2024-01-25T12:50:28;94945.03;;;9.76;66.04
5550;BME280;2798;42.716;23.256;2024-01-25T12:52:53;94939.47;;;9.82;66.09
5550;BME280;2798;42.716;23.256;2024-01-25T12:55:18;94934.66;;;9.91;64.52
5550;BME280;2798;42.716;23.256;2024-01-25T12:57:44;94914.09;;;9.91;64.37
5550;BME280;2798;42.716;23.256;2024-01-25T13:00:09;94907.31;;;9.89;64.43
5550;BME280;2798;42.716;23.256;2024-01-25T13:02:34;94917.38;;;9.93;63.51
5550;BME280;2798;42.716;23.256;2024-01-25T13:05:00;94916.56;;;9.92;63.93
5550;BME280;2798;42.716;23.256;2024-01-25T13:07:25;94916.84;;;9.87;63.16
5550;BME280;2798;42.716;23.256;2024-01-25T13:09:50;94852.16;;;9.42;62.43
5550;BME280;2798;42.716;23.256;2024-01-25T13:12:15;94923.75;;;9.87;62.33
5550;BME280;2798;42.716;23.256;2024-01-25T13:14:41;94929.59;;;9.76;63.67